Time;durP1;ratioP1;P1;durP2;ratioP2;P2;SDS_P1;SDS_P2;PMS_P1;PMS_P2;Temp;Humidity;BMP_temperature;BMP_pressure;BME280_temperature;BME280_humidity;BME280_pressure;Samples;Min_cycle;Max_cycle;Signal;HPM_P1;HPM_P2
2022/09/07 00:00:37;;;;;;;8.07;4.55;;;18.20;99.30;;;;;;5034911;28;20229;-83
2022/09/07 00:03:04;;;;;;;8.80;4.47;;;18.20;99.40;;;;;;5035582;28;20187;-82
2022/09/07 00:05:30;;;;;;;9.10;5.00;;;18.20;99.50;;;;;;5035860;28;20179;-82
2022/09/07 00:07:59;;;;;;;8.85;5.03;;;18.10;99.70;;;;;;5035791;28;20524;-83
2022/09/07 00:10:25;;;;;;;8.40;5.00;;;18.10;99.50;;;;;;5034179;28;20690;-82
2022/09/07 00:12:51;;;;;;;7.80;5.47;;;18.10;99.90;;;;;;5035634;28;20186;-83
2022/09/07 00:15:18;;;;;;;8.32;4.80;;;18.10;99.90;;;;;;5034109;28;20646;-83
2022/09/07 00:17:44;;;;;;;8.00;5.10;;;18.00;99.90;;;;;;5035529;28;20190;-82
2022/09/07 00:20:11;;;;;;;8.57;5.18;;;18.00;99.90;;;;;;5035579;28;20225;-83
2022/09/07 00:22:37;;;;;;;8.30;5.35;;;17.90;99.90;;;;;;5035533;28;20213;-83
2022/09/07 00:25:04;;;;;;;11.70;5.32;;;17.90;99.90;;;;;;5034304;28;20191;-83
2022/09/07 00:27:30;;;;;;;6.47;5.03;;;17.90;99.90;;;;;;5035175;28;20656;-83
2022/09/07 00:29:55;;;;;;;7.22;5.15;;;17.90;99.90;;;;;;5034743;28;20198;-83
2022/09/07 00:32:21;;;;;;;6.07;4.68;;;17.90;99.90;;;;;;5033951;28;20225;-83
2022/09/07 00:34:48;;;;;;;6.22;4.85;;;18.00;99.90;;;;;;5035221;28;20178;-83
2022/09/07 00:37:14;;;;;;;7.18;5.65;;;17.90;99.90;;;;;;5035261;28;20525;-82
2022/09/07 00:39:40;;;;;;;9.25;5.10;;;17.90;99.90;;;;;;5035172;28;20178;-83
2022/09/07 00:42:05;;;;;;;6.85;5.28;;;17.90;99.90;;;;;;5035028;28;20505;-82
2022/09/07 00:44:43;;;;;;;14.90;5.47;;;17.90;99.90;;;;;;5033856;28;20214;-82
2022/09/07 00:47:16;;;;;;;8.85;5.53;;;17.90;99.90;;;;;;5034875;28;20203;-82
2022/09/07 00:49:43;;;;;;;8.13;5.45;;;17.80;99.90;;;;;;5033962;28;20182;-83
2022/09/07 00:52:11;;;;;;;8.93;5.90;;;17.80;99.90;;;;;;5034901;28;20292;-82
2022/09/07 00:54:41;;;;;;;7.35;5.30;;;17.80;99.90;;;;;;5032459;28;20205;-82
2022/09/07 00:57:08;;;;;;;11.55;5.72;;;17.80;99.90;;;;;;5034646;28;20597;-82
2022/09/07 00:59:40;;;;;;;6.63;4.97;;;17.80;99.90;;;;;;5034401;28;20233;-82
2022/09/07 01:02:06;;;;;;;9.13;5.30;;;17.80;99.90;;;;;;5033103;28;20700;-82
2022/09/07 01:04:34;;;;;;;7.65;4.95;;;17.80;99.90;;;;;;5034624;28;20190;-82
2022/09/07 01:07:01;;;;;;;10.73;5.57;;;17.80;99.90;;;;;;5508356;22;21000;-82
2022/09/07 01:09:29;;;;;;;7.03;5.45;;;17.80;99.90;;;;;;5015421;28;20225;-82
2022/09/07 01:11:58;;;;;;;9.00;5.50;;;17.80;99.90;;;;;;5016568;28;20560;-82
2022/09/07 01:14:30;;;;;;;5.45;4.90;;;17.70;99.90;;;;;;5016526;28;20636;-82
2022/09/07 01:17:11;;;;;;;6.95;5.47;;;17.70;99.90;;;;;;5016718;28;20225;-82
2022/09/07 01:20:26;;;;;;;5.18;4.68;;;17.70;99.90;;;;;;5034051;28;20178;-82
2022/09/07 01:23:20;;;;;;;8.15;5.43;;;17.70;99.90;;;;;;5034119;28;20179;-82
2022/09/07 01:25:49;;;;;;;7.35;5.68;;;17.70;99.90;;;;;;5034422;28;20511;-82
2022/09/07 01:28:20;;;;;;;6.50;5.78;;;17.60;99.90;;;;;;5033989;28;20185;-82
2022/09/07 01:31:06;;;;;;;8.60;5.78;;;17.60;99.90;;;;;;5033215;28;20244;-82
2022/09/07 01:33:50;;;;;;;8.90;6.07;;;17.60;99.90;;;;;;5033828;28;20194;-81
2022/09/07 01:36:34;;;;;;;7.15;6.15;;;17.60;99.90;;;;;;5033730;28;20193;-82
2022/09/07 01:39:04;;;;;;;7.00;6.30;;;17.60;99.90;;;;;;5033325;28;20175;-83
2022/09/07 01:41:39;;;;;;;9.50;6.57;;;17.60;99.90;;;;;;5012059;28;20212;-82
2022/09/07 01:44:18;;;;;;;7.00;5.78;;;17.60;99.90;;;;;;5033576;28;20252;-82
2022/09/07 01:47:02;;;;;;;7.53;6.22;;;17.60;99.90;;;;;;5033865;28;20609;-82
2022/09/07 01:49:48;;;;;;;7.78;5.40;;;17.60;99.90;;;;;;5033634;28;20228;-82
2022/09/07 01:52:31;;;;;;;8.15;6.30;;;17.60;99.90;;;;;;5027223;28;20229;-82
2022/09/07 01:55:17;;;;;;;7.38;6.20;;;17.60;99.90;;;;;;5033448;28;20178;-81
2022/09/07 01:57:50;;;;;;;8.13;6.05;;;17.60;99.90;;;;;;5033335;28;20255;-83
2022/09/07 02:00:18;;;;;;;8.35;6.28;;;17.60;99.90;;;;;;5033795;28;20178;-81
2022/09/07 02:02:58;;;;;;;9.05;6.63;;;17.60;99.90;;;;;;5033247;28;20178;-83
2022/09/07 02:05:51;;;;;;;9.27;6.20;;;17.50;99.90;;;;;;5015789;28;20190;-82
2022/09/07 02:08:54;;;;;;;7.38;6.57;;;17.50;99.90;;;;;;5032472;28;20227;-82
2022/09/07 02:11:35;;;;;;;8.82;6.90;;;17.50;99.90;;;;;;5033026;28;20208;-82
2022/09/07 02:14:10;;;;;;;8.88;6.97;;;17.50;99.90;;;;;;5033081;28;20536;-83
2022/09/07 02:16:42;;;;;;;7.85;6.97;;;17.40;99.90;;;;;;5033619;28;20181;-83
2022/09/07 02:19:13;;;;;;;7.97;6.68;;;17.40;99.90;;;;;;5033056;28;20240;-82
2022/09/07 02:21:50;;;;;;;8.68;6.97;;;17.40;99.90;;;;;;5033218;28;20208;-83
2022/09/07 02:24:30;;;;;;;10.77;7.13;;;17.40;99.90;;;;;;5015095;28;20641;-83
2022/09/07 02:26:58;;;;;;;8.93;7.50;;;17.30;99.90;;;;;;5030616;28;20216;-82
2022/09/07 02:29:24;;;;;;;8.80;7.43;;;17.40;99.90;;;;;;5033030;28;20186;-82
2022/09/07 02:31:50;;;;;;;8.52;7.20;;;17.40;99.90;;;;;;5032985;28;20229;-82
2022/09/07 02:34:16;;;;;;;7.22;6.53;;;17.30;99.90;;;;;;5032790;28;20178;-82
2022/09/07 02:36:49;;;;;;;8.25;6.82;;;17.30;99.90;;;;;;5033026;28;20186;-82
2022/09/07 02:39:14;;;;;;;9.98;7.10;;;17.20;99.90;;;;;;5014928;28;20178;-82
2022/09/07 02:41:42;;;;;;;7.78;6.97;;;17.20;99.90;;;;;;5033014;28;20189;-82
2022/09/07 02:44:18;;;;;;;11.65;7.70;;;17.20;99.90;;;;;;5032777;28;20189;-82
2022/09/07 02:47:02;;;;;;;9.02;7.68;;;17.20;99.90;;;;;;5033010;28;20190;-81
2022/09/07 02:49:50;;;;;;;10.35;7.95;;;17.10;99.90;;;;;;5027127;28;20236;-82
2022/09/07 02:52:45;;;;;;;9.25;7.00;;;17.10;99.90;;;;;;5026146;28;20276;-82
2022/09/07 02:55:25;;;;;;;10.18;6.78;;;17.10;99.90;;;;;;4959794;28;20224;-83
2022/09/07 02:58:09;;;;;;;8.18;7.22;;;17.10;99.90;;;;;;5032722;28;20174;-82
2022/09/07 03:01:00;;;;;;;10.38;7.18;;;17.10;99.90;;;;;;5015068;28;20191;-82
2022/09/07 03:03:36;;;;;;;8.50;7.68;;;17.00;99.90;;;;;;5032164;28;20663;-82
2022/09/07 03:06:07;;;;;;;9.23;7.65;;;17.00;99.90;;;;;;5032951;28;20178;-83
2022/09/07 03:09:03;;;;;;;8.73;7.07;;;17.00;99.90;;;;;;5017585;28;20324;-82
2022/09/07 03:11:29;;;;;;;10.25;7.10;;;16.90;99.90;;;;;;5035575;28;20222;-83
2022/09/07 03:14:16;;;;;;;9.48;7.70;;;16.90;99.90;;;;;;5018767;28;20186;-82
2022/09/07 03:16:42;;;;;;;12.00;8.35;;;16.90;99.90;;;;;;5018716;28;20590;-83
2022/09/07 03:19:08;;;;;;;9.82;8.30;;;16.80;99.90;;;;;;5036611;28;20261;-83
2022/09/07 03:21:34;;;;;;;10.55;7.28;;;16.90;99.90;;;;;;5036808;28;20518;-82
2022/09/07 03:24:01;;;;;;;9.07;7.85;;;16.90;99.90;;;;;;5018249;28;20200;-82
2022/09/07 03:26:27;;;;;;;8.95;7.60;;;16.80;99.90;;;;;;5036888;28;20237;-83
2022/09/07 03:28:52;;;;;;;9.25;7.53;;;16.80;99.90;;;;;;5035922;28;20189;-82
2022/09/07 03:31:19;;;;;;;9.88;7.65;;;16.90;99.90;;;;;;5036350;28;20206;-82
2022/09/07 03:33:45;;;;;;;10.35;7.32;;;16.90;99.90;;;;;;5018272;28;20186;-83
2022/09/07 03:36:11;;;;;;;9.18;7.32;;;16.90;99.90;;;;;;5036178;28;20178;-83
2022/09/07 03:38:37;;;;;;;8.50;6.60;;;16.90;99.90;;;;;;5018405;28;20308;-83
2022/09/07 03:41:06;;;;;;;10.23;7.72;;;16.90;99.90;;;;;;5035760;28;20179;-82
2022/09/07 03:43:32;;;;;;;9.90;6.50;;;16.90;99.90;;;;;;5035893;28;20213;-82
2022/09/07 03:46:00;;;;;;;11.60;7.13;;;16.80;99.90;;;;;;5035848;28;20175;-82
2022/09/07 03:48:29;;;;;;;10.25;7.68;;;16.90;99.90;;;;;;5036034;28;20190;-83
2022/09/07 03:51:01;;;;;;;9.50;7.93;;;16.80;99.90;;;;;;5017909;28;20214;-82
2022/09/07 03:53:30;;;;;;;10.50;7.70;;;16.80;99.90;;;;;;5035524;28;20189;-83
2022/09/07 03:56:14;;;;;;;12.80;7.68;;;16.80;99.90;;;;;;5017810;28;20190;-82
2022/09/07 03:58:41;;;;;;;12.52;7.65;;;16.80;99.90;;;;;;5017996;28;20647;-82
2022/09/07 04:01:14;;;;;;;8.88;6.70;;;16.80;99.90;;;;;;5018050;28;20222;-82
2022/09/07 04:03:41;;;;;;;12.25;8.05;;;16.80;99.90;;;;;;5017795;28;20182;-82
2022/09/07 04:06:06;;;;;;;11.10;7.45;;;16.80;99.90;;;;;;5017616;28;20197;-82
2022/09/07 04:08:34;;;;;;;12.70;7.72;;;16.80;99.90;;;;;;5034792;28;20223;-83
2022/09/07 04:11:01;;;;;;;8.23;7.43;;;16.70;99.90;;;;;;5017646;28;20206;-82
2022/09/07 04:13:28;;;;;;;10.25;7.10;;;16.70;99.90;;;;;;5018028;28;20213;-82
2022/09/07 04:15:54;;;;;;;12.25;7.45;;;16.70;99.90;;;;;;5035466;28;20189;-82
2022/09/07 04:18:20;;;;;;;9.75;7.53;;;16.70;99.90;;;;;;5035107;28;20183;-82
2022/09/07 04:20:46;;;;;;;12.18;8.57;;;16.70;99.90;;;;;;5035546;28;20191;-82
2022/09/07 04:23:12;;;;;;;11.32;7.80;;;16.70;99.90;;;;;;5017188;28;20182;-80
2022/09/07 04:25:45;;;;;;;11.07;7.13;;;16.70;99.90;;;;;;5035306;28;20292;-82
2022/09/07 04:28:11;;;;;;;11.98;7.75;;;16.70;99.90;;;;;;5035953;28;20621;-82
2022/09/07 04:30:37;;;;;;;10.93;7.05;;;16.70;99.90;;;;;;5034869;28;20197;-82
2022/09/07 04:33:03;;;;;;;15.80;7.40;;;16.70;99.90;;;;;;5034401;28;20518;-81
2022/09/07 04:35:28;;;;;;;10.60;7.88;;;16.70;99.90;;;;;;5034971;28;20241;-81
2022/09/07 04:37:54;;;;;;;13.25;8.68;;;16.80;99.90;;;;;;5035143;28;20182;-82
2022/09/07 04:40:20;;;;;;;14.55;8.95;;;16.80;99.90;;;;;;5035140;28;20213;-81
2022/09/07 04:42:46;;;;;;;12.40;8.73;;;16.80;99.90;;;;;;5034772;28;20581;-81
2022/09/07 04:45:11;;;;;;;14.10;9.00;;;16.90;99.90;;;;;;5034993;28;20265;-81
2022/09/07 04:47:37;;;;;;;12.65;10.18;;;16.90;99.90;;;;;;5034680;28;20232;-82
2022/09/07 04:50:03;;;;;;;11.85;9.57;;;17.00;99.90;;;;;;5013249;28;20629;-80
2022/09/07 04:52:29;;;;;;;13.25;10.35;;;17.00;99.90;;;;;;5029697;28;20203;-81
2022/09/07 04:54:54;;;;;;;11.18;10.07;;;17.10;99.90;;;;;;5033658;28;20187;-82
2022/09/07 04:57:23;;;;;;;13.45;10.23;;;17.10;99.90;;;;;;5034769;28;20583;-82
2022/09/07 04:59:49;;;;;;;12.80;10.05;;;17.20;99.90;;;;;;5034725;28;20613;-82
2022/09/07 05:02:14;;;;;;;12.40;10.88;;;17.10;99.90;;;;;;5034653;28;20224;-82
2022/09/07 05:04:40;;;;;;;15.55;10.57;;;17.10;99.90;;;;;;5034305;28;20189;-82
2022/09/07 05:07:06;;;;;;;10.25;8.32;;;17.20;99.90;;;;;;5034363;28;20615;-82
2022/09/07 05:09:31;;;;;;;10.55;9.45;;;17.20;99.90;;;;;;5034550;28;20190;-82
2022/09/07 05:11:57;;;;;;;13.75;10.27;;;17.20;99.90;;;;;;5016770;28;20225;-83
2022/09/07 05:14:23;;;;;;;12.15;9.23;;;17.10;99.90;;;;;;5016389;28;20617;-83
2022/09/07 05:16:49;;;;;;;11.43;9.50;;;17.10;99.90;;;;;;5034533;28;20206;-84
2022/09/07 05:19:15;;;;;;;15.00;9.40;;;17.10;99.90;;;;;;5034043;28;20174;-83
2022/09/07 05:21:40;;;;;;;13.25;10.43;;;17.00;99.90;;;;;;5034087;28;20182;-82
2022/09/07 05:24:06;;;;;;;15.02;11.35;;;17.00;99.90;;;;;;5034176;28;20524;-82
2022/09/07 05:26:35;;;;;;;13.85;11.02;;;17.00;99.90;;;;;;5034295;28;20183;-82
2022/09/07 05:29:04;;;;;;;13.15;10.18;;;16.90;99.90;;;;;;5033942;28;20236;-83
2022/09/07 05:31:31;;;;;;;15.15;10.95;;;16.90;99.90;;;;;;5014199;28;20199;-82
2022/09/07 05:33:57;;;;;;;13.93;10.43;;;16.90;99.90;;;;;;5033211;28;20214;-84
2022/09/07 05:36:26;;;;;;;14.52;11.13;;;16.90;99.90;;;;;;5028673;28;20214;-82
2022/09/07 05:38:57;;;;;;;21.58;10.25;;;16.90;99.90;;;;;;5016483;28;20186;-82
2022/09/07 05:41:24;;;;;;;14.13;10.35;;;16.90;99.90;;;;;;5028743;28;20587;-83
2022/09/07 05:43:50;;;;;;;12.25;10.55;;;16.90;99.90;;;;;;5032541;28;20670;-82
2022/09/07 05:46:17;;;;;;;18.40;11.43;;;16.90;99.90;;;;;;5033526;28;20179;-82
2022/09/07 05:48:43;;;;;;;16.88;10.65;;;16.90;99.90;;;;;;5032924;28;20179;-81
2022/09/07 05:51:11;;;;;;;12.68;10.70;;;16.90;99.90;;;;;;5034163;28;20209;-82
2022/09/07 05:53:38;;;;;;;18.67;11.13;;;17.00;99.90;;;;;;5016110;28;20293;-83
2022/09/07 05:56:05;;;;;;;14.05;10.65;;;16.80;99.90;;;;;;5030561;28;20202;-83
2022/09/07 05:58:31;;;;;;;17.35;9.88;;;16.90;99.90;;;;;;5029234;28;20225;-82
2022/09/07 06:01:06;;;;;;;14.48;9.90;;;16.80;99.90;;;;;;5015980;28;20637;-82
2022/09/07 06:03:34;;;;;;;12.68;9.82;;;16.80;99.90;;;;;;5033471;28;20585;-82
2022/09/07 06:06:08;;;;;;;11.23;10.05;;;16.90;99.90;;;;;;5033959;28;20187;-82
2022/09/07 06:08:36;;;;;;;14.55;9.35;;;16.90;99.90;;;;;;5032952;28;20217;-82
2022/09/07 06:11:06;;;;;;;12.45;9.63;;;16.90;99.90;;;;;;5033864;28;20210;-82
2022/09/07 06:13:33;;;;;;;10.60;9.10;;;16.80;99.90;;;;;;5015908;28;20212;-82
2022/09/07 06:16:04;;;;;;;19.13;10.40;;;16.90;99.90;;;;;;5033752;28;20244;-82
2022/09/07 06:18:31;;;;;;;10.25;8.52;;;17.00;99.90;;;;;;5033481;28;20190;-82
2022/09/07 06:21:05;;;;;;;13.98;10.85;;;17.00;99.90;;;;;;5015925;28;20213;-83
2022/09/07 06:23:31;;;;;;;11.95;9.68;;;17.00;99.90;;;;;;5015638;28;20182;-82
2022/09/07 06:25:57;;;;;;;17.00;8.70;;;17.00;99.90;;;;;;5033630;28;20225;-82
2022/09/07 06:28:31;;;;;;;13.50;9.80;;;17.10;99.90;;;;;;5033183;28;20175;-82
2022/09/07 06:31:01;;;;;;;13.02;9.43;;;17.20;99.90;;;;;;5016377;28;20215;-83
2022/09/07 06:33:26;;;;;;;12.85;9.95;;;17.20;99.90;;;;;;5033001;28;20531;-82
2022/09/07 06:36:22;;;;;;;11.55;9.45;;;17.20;99.90;;;;;;5015961;28;20189;-82
2022/09/07 06:38:49;;;;;;;11.80;9.60;;;17.30;99.90;;;;;;5033420;28;20190;-82
2022/09/07 06:41:17;;;;;;;12.32;9.45;;;17.40;99.90;;;;;;5015361;28;20186;-82
2022/09/07 06:43:43;;;;;;;15.35;9.95;;;17.30;99.90;;;;;;5036687;28;20497;-82
2022/09/07 06:46:09;;;;;;;10.73;8.77;;;17.30;99.90;;;;;;5019827;28;20612;-83
2022/09/07 06:48:35;;;;;;;12.65;9.77;;;17.40;99.90;;;;;;5037337;28;20248;-82
2022/09/07 06:51:08;;;;;;;11.20;9.85;;;17.40;99.90;;;;;;5037285;28;20213;-83
2022/09/07 06:53:35;;;;;;;14.20;9.55;;;17.50;99.90;;;;;;5037540;28;20636;-83
2022/09/07 06:56:05;;;;;;;14.13;9.50;;;17.50;99.90;;;;;;5011926;28;20179;-82
2022/09/07 06:58:31;;;;;;;10.38;9.23;;;17.50;99.90;;;;;;4999784;28;20181;-83
2022/09/07 07:00:57;;;;;;;13.43;9.55;;;17.50;99.90;;;;;;5017398;28;20183;-82
2022/09/07 07:03:22;;;;;;;18.40;10.35;;;17.60;99.90;;;;;;5018185;28;20186;-83
2022/09/07 07:05:52;;;;;;;14.30;9.65;;;17.60;99.90;;;;;;5019042;28;20590;-83
2022/09/07 07:08:19;;;;;;;10.50;8.88;;;17.60;99.90;;;;;;5037101;28;20218;-83
2022/09/07 07:10:45;;;;;;;11.32;9.38;;;17.60;99.90;;;;;;5019036;28;20304;-84
2022/09/07 07:13:11;;;;;;;12.65;9.80;;;17.60;99.90;;;;;;5019216;28;20261;-83
2022/09/07 07:15:37;;;;;;;12.85;8.95;;;17.60;99.90;;;;;;5037008;28;20171;-82
2022/09/07 07:18:03;;;;;;;12.35;9.82;;;17.70;99.90;;;;;;5018787;28;20189;-83
2022/09/07 07:20:29;;;;;;;15.15;9.32;;;17.80;99.90;;;;;;5018581;28;20186;-85
2022/09/07 07:22:54;;;;;;;11.77;9.50;;;17.90;99.90;;;;;;5036568;28;20206;-83
2022/09/07 07:25:21;;;;;;;15.73;9.73;;;18.00;99.90;;;;;;5036835;28;20163;-83
2022/09/07 07:27:47;;;;;;;13.27;9.20;;;18.10;99.90;;;;;;5036786;28;20186;-83
2022/09/07 07:30:13;;;;;;;13.05;8.93;;;18.10;99.90;;;;;;5018749;28;20179;-82
2022/09/07 07:32:39;;;;;;;13.57;8.63;;;18.20;99.90;;;;;;5035217;28;20202;-82
2022/09/07 07:35:06;;;;;;;10.50;8.82;;;18.20;99.90;;;;;;5029641;28;20171;-82
2022/09/07 07:37:32;;;;;;;13.73;9.32;;;18.10;99.90;;;;;;5016596;28;20214;-83
2022/09/07 07:39:59;;;;;;;9.32;8.32;;;18.10;99.90;;;;;;5004261;28;20214;-82
2022/09/07 07:42:25;;;;;;;11.48;8.52;;;18.20;99.90;;;;;;5036517;28;20175;-81
2022/09/07 07:44:51;;;;;;;14.30;9.07;;;18.20;99.90;;;;;;5020318;28;20176;-82
2022/09/07 07:47:16;;;;;;;10.88;9.20;;;18.20;99.90;;;;;;4999321;28;20187;-82
2022/09/07 07:49:42;;;;;;;15.90;8.30;;;18.20;99.90;;;;;;5016189;28;20526;-82
2022/09/07 07:52:08;;;;;;;10.43;7.75;;;18.30;99.90;;;;;;5031385;28;20214;-81
2022/09/07 07:54:36;;;;;;;9.93;7.70;;;18.30;99.90;;;;;;5035798;28;20601;-81
2022/09/07 07:57:03;;;;;;;13.07;8.27;;;18.30;99.90;;;;;;5036360;28;20543;-81
2022/09/07 07:59:28;;;;;;;17.30;8.27;;;18.30;99.90;;;;;;5035931;28;20197;-81
2022/09/07 08:01:54;;;;;;;13.23;9.40;;;18.20;99.90;;;;;;5036038;28;20175;-80
2022/09/07 08:04:19;;;;;;;13.77;9.25;;;18.10;99.90;;;;;;5034236;28;20194;-80
2022/09/07 08:06:45;;;;;;;24.23;11.93;;;18.10;99.90;;;;;;5035666;28;20214;-80
2022/09/07 08:09:11;;;;;;;18.50;11.40;;;18.10;99.90;;;;;;5036013;28;20249;-80
2022/09/07 08:11:38;;;;;;;18.42;11.35;;;18.00;99.90;;;;;;5018179;28;20315;-80
2022/09/07 08:14:05;;;;;;;13.68;11.75;;;17.90;99.90;;;;;;5015134;28;20232;-80
2022/09/07 08:16:31;;;;;;;14.30;11.48;;;17.80;99.90;;;;;;5035795;28;20170;-80
2022/09/07 08:18:57;;;;;;;16.05;11.93;;;17.70;99.90;;;;;;5035981;28;20182;-81
2022/09/07 08:21:24;;;;;;;15.23;11.95;;;17.70;99.90;;;;;;5035237;28;20229;-79
2022/09/07 08:23:50;;;;;;;17.92;11.48;;;17.70;99.90;;;;;;5035373;28;20167;-79
2022/09/07 08:26:15;;;;;;;15.18;11.55;;;17.70;99.90;;;;;;5036193;28;20204;-80
2022/09/07 08:28:44;;;;;;;13.07;11.63;;;17.80;99.90;;;;;;5035592;28;20181;-80
2022/09/07 08:31:12;;;;;;;11.18;10.07;;;17.90;99.90;;;;;;5017271;28;20293;-80
2022/09/07 08:33:39;;;;;;;12.30;11.00;;;17.90;99.90;;;;;;5035311;28;20692;-82
2022/09/07 08:36:14;;;;;;;12.50;11.13;;;18.00;99.90;;;;;;5035768;28;20170;-80
2022/09/07 08:38:40;;;;;;;15.98;12.63;;;18.00;99.90;;;;;;5035780;28;20249;-80
2022/09/07 08:41:36;;;;;;;14.60;11.88;;;18.10;99.90;;;;;;5035002;28;20178;-80
2022/09/07 08:44:09;;;;;;;14.48;12.70;;;18.10;99.90;;;;;;5035739;28;20170;-83
2022/09/07 08:46:57;;;;;;;18.42;13.40;;;18.10;99.90;;;;;;5035150;28;20167;-82
2022/09/07 08:49:40;;;;;;;15.32;11.30;;;18.20;99.90;;;;;;5016727;28;20581;-82
2022/09/07 08:52:24;;;;;;;14.95;12.25;;;18.30;99.90;;;;;;5033335;28;20206;-83
2022/09/07 08:55:27;;;;;;;15.20;12.25;;;18.40;99.90;;;;;;5015078;28;20191;-81
2022/09/07 08:58:00;;;;;;;11.45;10.25;;;18.60;99.90;;;;;;5024933;28;20273;-80
2022/09/07 09:00:28;;;;;;;14.95;11.00;;;18.70;99.90;;;;;;5017302;28;20170;-82
2022/09/07 09:02:57;;;;;;;18.20;12.63;;;18.80;99.90;;;;;;5033395;28;20569;-81
2022/09/07 09:06:02;;;;;;;13.95;10.95;;;18.90;99.90;;;;;;5012668;28;20676;-82
2022/09/07 09:08:31;;;;;;;13.35;11.55;;;18.90;99.90;;;;;;4994523;28;20222;-82
2022/09/07 09:11:28;;;;;;;15.60;11.70;;;18.90;99.90;;;;;;5016275;28;20320;-82
2022/09/07 09:14:03;;;;;;;12.45;9.85;;;19.10;99.90;;;;;;5029655;28;20565;-83
2022/09/07 09:16:39;;;;;;;11.93;9.82;;;19.20;99.90;;;;;;5034605;28;20165;-82
2022/09/07 09:19:34;;;;;;;12.98;11.50;;;19.30;99.90;;;;;;5017168;28;20171;-83
2022/09/07 09:22:24;;;;;;;12.73;11.25;;;19.40;99.90;;;;;;5016859;28;20254;-82
2022/09/07 09:25:15;;;;;;;11.65;10.43;;;19.40;99.90;;;;;;5022231;28;20179;-82
2022/09/07 09:27:41;;;;;;;15.10;11.05;;;19.40;99.90;;;;;;5014445;28;20232;-82
2022/09/07 09:30:21;;;;;;;15.07;10.05;;;19.40;99.90;;;;;;4996618;28;20187;-81
2022/09/07 09:33:10;;;;;;;11.90;10.43;;;19.50;99.90;;;;;;5014612;28;20218;-81
2022/09/07 09:35:37;;;;;;;14.05;10.23;;;19.60;99.90;;;;;;5033633;28;20178;-81
2022/09/07 09:38:03;;;;;;;14.02;10.40;;;19.70;99.90;;;;;;5016433;28;20183;-81
2022/09/07 09:40:31;;;;;;;15.10;10.65;;;19.90;99.90;;;;;;5033258;28;20225;-82
2022/09/07 09:43:05;;;;;;;11.35;10.13;;;20.10;99.90;;;;;;5016229;28;20278;-82
2022/09/07 09:45:35;;;;;;;18.52;9.68;;;20.30;99.90;;;;;;5016323;28;20225;-83
2022/09/07 09:48:07;;;;;;;13.85;8.85;;;20.60;99.90;;;;;;5033683;28;20175;-81
2022/09/07 09:50:39;;;;;;;12.77;9.55;;;20.70;99.90;;;;;;5033779;28;20190;-81
2022/09/07 09:53:05;;;;;;;13.38;9.13;;;20.80;99.90;;;;;;5033912;28;20190;-81
2022/09/07 09:55:36;;;;;;;12.00;10.80;;;20.80;99.90;;;;;;5007505;28;20211;-80
2022/09/07 09:58:25;;;;;;;11.57;10.23;;;20.80;99.90;;;;;;5014505;28;20175;-81
2022/09/07 10:00:56;;;;;;;12.48;10.02;;;20.90;99.90;;;;;;5013964;28;20186;-80
2022/09/07 10:03:25;;;;;;;11.35;9.60;;;21.10;99.90;;;;;;4997707;28;20179;-80
2022/09/07 10:05:51;;;;;;;10.25;8.95;;;21.30;99.90;;;;;;5033312;28;20167;-80
2022/09/07 10:08:25;;;;;;;11.25;9.20;;;21.50;99.90;;;;;;5015068;28;20562;-80
2022/09/07 10:11:00;;;;;;;10.27;8.55;;;21.70;99.90;;;;;;5033403;28;20205;-80
2022/09/07 10:13:34;;;;;;;9.93;8.60;;;21.80;99.90;;;;;;5015624;28;20170;-81
2022/09/07 10:16:03;;;;;;;9.02;8.13;;;22.00;99.90;;;;;;5021279;28;20194;-81
2022/09/07 10:18:39;;;;;;;13.30;8.48;;;22.10;99.90;;;;;;5014172;28;20176;-81
2022/09/07 10:21:25;;;;;;;9.05;8.13;;;22.20;99.90;;;;;;4996707;28;20183;-80
2022/09/07 10:23:59;;;;;;;11.93;8.30;;;22.30;99.90;;;;;;5013885;28;20549;-80
2022/09/07 10:26:30;;;;;;;9.55;8.20;;;22.30;99.90;;;;;;5021235;28;20170;-80
2022/09/07 10:29:13;;;;;;;10.45;8.18;;;22.20;99.90;;;;;;5015697;28;20202;-80
2022/09/07 10:32:00;;;;;;;8.82;7.72;;;22.30;99.90;;;;;;5017112;28;20203;-81
2022/09/07 10:34:38;;;;;;;10.15;8.82;;;22.40;99.90;;;;;;5030620;28;20317;-81
2022/09/07 10:37:07;;;;;;;9.75;7.80;;;22.40;99.90;;;;;;5033413;28;20254;-81
2022/09/07 10:39:35;;;;;;;13.20;8.18;;;22.50;99.90;;;;;;5033125;28;20174;-81
2022/09/07 10:42:31;;;;;;;11.75;7.28;;;22.60;99.90;;;;;;5033482;28;20178;-81
2022/09/07 10:45:19;;;;;;;8.20;7.40;;;22.60;99.90;;;;;;5015752;28;20191;-81
2022/09/07 10:47:51;;;;;;;8.02;7.22;;;22.60;99.90;;;;;;5033492;28;20258;-81
2022/09/07 10:50:30;;;;;;;9.40;6.10;;;22.70;99.90;;;;;;5033009;28;20174;-80
2022/09/07 10:53:15;;;;;;;10.32;6.40;;;22.80;99.90;;;;;;5033174;28;20202;-81
2022/09/07 10:56:11;;;;;;;8.70;6.82;;;22.90;99.90;;;;;;5015646;28;20601;-81
2022/09/07 10:58:40;;;;;;;8.73;7.30;;;23.00;99.90;;;;;;5033307;28;20193;-81
2022/09/07 11:01:12;;;;;;;7.50;6.72;;;23.00;99.90;;;;;;5033266;28;20605;-80
2022/09/07 11:04:20;;;;;;;10.45;6.38;;;23.10;99.90;;;;;;5025987;28;20183;-80
2022/09/07 11:06:50;;;;;;;9.68;7.28;;;23.20;99.90;;;;;;4983205;28;20633;-81
2022/09/07 11:09:40;;;;;;;7.82;7.03;;;23.20;99.90;;;;;;5013373;28;20201;-81
2022/09/07 11:12:13;;;;;;;9.13;6.63;;;23.30;99.90;;;;;;5013494;28;20297;-79
2022/09/07 11:14:55;;;;;;;15.18;8.07;;;23.40;99.90;;;;;;5020810;28;20209;-80
2022/09/07 11:17:25;;;;;;;9.32;7.90;;;23.40;99.90;;;;;;4998492;28;20202;-80
2022/09/07 11:20:10;;;;;;;9.77;7.07;;;23.60;99.90;;;;;;5012930;28;20179;-80
2022/09/07 11:23:02;;;;;;;10.05;6.60;;;23.60;99.90;;;;;;5013698;28;20251;-80
2022/09/07 11:25:47;;;;;;;7.03;6.03;;;23.60;99.90;;;;;;4974631;28;20209;-80
2022/09/07 11:28:44;;;;;;;7.85;6.55;;;23.60;99.90;;;;;;5033795;28;20504;-81
2022/09/07 11:31:37;;;;;;;8.30;6.63;;;23.50;99.90;;;;;;5036053;28;20225;-80
2022/09/07 11:34:19;;;;;;;7.85;7.05;;;23.40;99.90;;;;;;5004050;28;20379;-80
2022/09/07 11:36:52;;;;;;;7.78;6.82;;;23.40;99.90;;;;;;4999159;28;20177;-79
2022/09/07 11:39:25;;;;;;;8.18;5.55;;;23.40;99.90;;;;;;5016612;28;20275;-79
2022/09/07 11:42:02;;;;;;;8.27;7.45;;;23.50;99.90;;;;;;5025747;28;20175;-79
2022/09/07 11:44:54;;;;;;;7.53;6.72;;;23.60;99.90;;;;;;5027904;28;20294;-79
2022/09/07 11:47:36;;;;;;;7.07;5.80;;;23.60;99.90;;;;;;5016677;28;20167;-80
2022/09/07 11:50:01;;;;;;;7.53;6.82;;;23.80;99.90;;;;;;5016436;28;20159;-80
2022/09/07 11:52:27;;;;;;;7.70;6.75;;;23.90;99.90;;;;;;4999489;28;20545;-80
2022/09/07 11:54:57;;;;;;;9.60;6.15;;;23.90;99.90;;;;;;5030261;28;20197;-80
2022/09/07 11:57:46;;;;;;;6.97;5.70;;;23.90;99.90;;;;;;5036177;28;20167;-80
2022/09/07 12:00:38;;;;;;;9.02;6.32;;;23.90;99.90;;;;;;5036347;28;20181;-80
2022/09/07 12:03:32;;;;;;;11.38;6.75;;;23.90;99.90;;;;;;5032811;28;20178;-79
2022/09/07 12:06:14;;;;;;;7.25;6.50;;;23.80;99.90;;;;;;5035286;28;20246;-79
2022/09/07 12:08:45;;;;;;;10.07;5.55;;;24.00;99.90;;;;;;4997067;28;20698;-80
2022/09/07 12:11:14;;;;;;;7.57;5.82;;;24.10;99.90;;;;;;5014969;28;20206;-81
2022/09/07 12:13:55;;;;;;;14.07;6.57;;;24.10;99.90;;;;;;5013028;28;20195;-80
2022/09/07 12:16:30;;;;;;;6.50;4.90;;;24.10;99.90;;;;;;5016188;28;20499;-80
2022/09/07 12:19:17;;;;;;;6.82;5.22;;;24.10;99.90;;;;;;5016225;28;20245;-81
2022/09/07 12:21:49;;;;;;;5.53;4.97;;;24.20;99.90;;;;;;5015627;28;20172;-80
2022/09/07 12:24:33;;;;;;;9.88;5.72;;;24.40;99.90;;;;;;5016161;28;20205;-79
2022/09/07 12:27:00;;;;;;;6.45;5.00;;;24.70;99.90;;;;;;5016150;28;20159;-80
2022/09/07 12:29:28;;;;;;;6.15;4.82;;;24.80;99.90;;;;;;5015352;28;20179;-81
2022/09/07 12:31:59;;;;;;;10.15;5.22;;;25.00;99.20;;;;;;5015976;28;20257;-80
2022/09/07 12:34:31;;;;;;;5.15;4.38;;;25.10;98.70;;;;;;5015417;28;20183;-81
2022/09/07 12:37:04;;;;;;;6.35;4.70;;;25.20;99.60;;;;;;5015932;28;20533;-81
2022/09/07 12:39:31;;;;;;;6.95;5.32;;;25.40;99.30;;;;;;5013988;28;20585;-80
2022/09/07 12:42:09;;;;;;;8.32;4.80;;;25.40;98.30;;;;;;5015501;28;20183;-80
2022/09/07 12:44:35;;;;;;;6.43;4.70;;;25.50;98.50;;;;;;5015557;28;20598;-80
2022/09/07 12:47:17;;;;;;;7.40;4.05;;;25.50;97.10;;;;;;5001252;28;20183;-80
2022/09/07 12:49:58;;;;;;;6.35;3.88;;;25.40;96.80;;;;;;4995594;28;20247;-81
2022/09/07 12:52:44;;;;;;;8.82;4.28;;;25.20;97.10;;;;;;4995909;28;20572;-81
2022/09/07 12:55:11;;;;;;;6.25;3.45;;;25.20;97.20;;;;;;4995800;28;20192;-80
2022/09/07 12:57:54;;;;;;;4.32;3.72;;;25.40;97.80;;;;;;4997514;28;20171;-81
2022/09/07 13:00:51;;;;;;;6.60;4.63;;;25.50;97.20;;;;;;5015553;28;20171;-80
2022/09/07 13:03:35;;;;;;;4.50;3.78;;;25.60;96.80;;;;;;5015518;28;20198;-81
2022/09/07 13:06:26;;;;;;;5.88;3.90;;;25.60;97.80;;;;;;5015045;28;20535;-80